Terminal Aerodrome Forecast
Issued by NWS

Home | Current Version | Previous Version | Graphics & Text | Print | Product List | Glossary On
Versions: 1 2 3 4 5 6 7 8 9 10 11 12 13 14 15 16
000
FTUS43 KABR 181700
TAFPIR
TAF
KPIR 181728Z 1818/1918 17018G25KT P6SM SCT030 SCT250
     FM190100 14013G21KT P6SM BKN250
     FM190700 14011KT 3SM BR BKN008
     FM191400 26012KT P6SM BKN250=

USA.gov is the U.S. government's official web portal to all federal, state and local government web resources and services.